sensor_id;sensor_type;location;lat;lon;timestamp;P1;durP1;ratioP1;P2;durP2;ratioP2
67503;SDS011;54351;49.108;1.502;2022-10-30T00:00:05;388.02;;;361.83;;
67503;SDS011;54351;49.108;1.502;2022-10-30T00:02:31;370.80;;;345.88;;
67503;SDS011;54351;49.108;1.502;2022-10-30T00:04:57;413.90;;;385.48;;
67503;SDS011;54351;49.108;1.502;2022-10-30T00:07:23;358.35;;;333.27;;
67503;SDS011;54351;49.108;1.502;2022-10-30T00:09:49;293.17;;;273.50;;
67503;SDS011;54351;49.108;1.502;2022-10-30T00:12:15;364.15;;;339.48;;
67503;SDS011;54351;49.108;1.502;2022-10-30T00:14:42;330.00;;;308.10;;
67503;SDS011;54351;49.108;1.502;2022-10-30T00:17:08;345.90;;;322.65;;
67503;SDS011;54351;49.108;1.502;2022-10-30T00:19:34;355.52;;;331.42;;
67503;SDS011;54351;49.108;1.502;2022-10-30T00:22:00;261.02;;;242.57;;
67503;SDS011;54351;49.108;1.502;2022-10-30T00:24:27;237.93;;;220.60;;
67503;SDS011;54351;49.108;1.502;2022-10-30T00:26:53;323.33;;;300.60;;
67503;SDS011;54351;49.108;1.502;2022-10-30T00:29:19;217.57;;;201.88;;
67503;SDS011;54351;49.108;1.502;2022-10-30T00:31:47;260.25;;;242.02;;
67503;SDS011;54351;49.108;1.502;2022-10-30T00:34:13;240.05;;;222.82;;
67503;SDS011;54351;49.108;1.502;2022-10-30T00:36:40;218.00;;;202.40;;
67503;SDS011;54351;49.108;1.502;2022-10-30T00:39:06;242.65;;;224.82;;
67503;SDS011;54351;49.108;1.502;2022-10-30T00:41:32;246.75;;;228.73;;
67503;SDS011;54351;49.108;1.502;2022-10-30T00:43:58;236.32;;;219.90;;
67503;SDS011;54351;49.108;1.502;2022-10-30T00:46:27;250.75;;;232.18;;
67503;SDS011;54351;49.108;1.502;2022-10-30T00:48:57;208.57;;;194.25;;
67503;SDS011;54351;49.108;1.502;2022-10-30T00:51:23;235.20;;;218.30;;
67503;SDS011;54351;49.108;1.502;2022-10-30T00:53:50;238.52;;;220.95;;
67503;SDS011;54351;49.108;1.502;2022-10-30T00:56:17;219.52;;;203.40;;
67503;SDS011;54351;49.108;1.502;2022-10-30T00:58:49;218.10;;;202.18;;
67503;SDS011;54351;49.108;1.502;2022-10-30T01:01:16;249.57;;;232.00;;
67503;SDS011;54351;49.108;1.502;2022-10-30T01:03:44;274.52;;;255.27;;
67503;SDS011;54351;49.108;1.502;2022-10-30T01:06:11;271.17;;;251.85;;
67503;SDS011;54351;49.108;1.502;2022-10-30T01:08:37;252.32;;;233.73;;
67503;SDS011;54351;49.108;1.502;2022-10-30T01:11:04;246.68;;;228.93;;
67503;SDS011;54351;49.108;1.502;2022-10-30T01:13:30;224.95;;;208.73;;
67503;SDS011;54351;49.108;1.502;2022-10-30T01:25:58;323.70;;;300.63;;
67503;SDS011;54351;49.108;1.502;2022-10-30T01:31:02;308.95;;;288.13;;
67503;SDS011;54351;49.108;1.502;2022-10-30T01:33:45;311.20;;;290.55;;
67503;SDS011;54351;49.108;1.502;2022-10-30T01:36:16;329.50;;;306.75;;
67503;SDS011;54351;49.108;1.502;2022-10-30T01:38:48;427.75;;;398.20;;
67503;SDS011;54351;49.108;1.502;2022-10-30T01:41:15;407.75;;;378.48;;
67503;SDS011;54351;49.108;1.502;2022-10-30T01:43:41;399.15;;;370.92;;
67503;SDS011;54351;49.108;1.502;2022-10-30T01:46:12;510.52;;;474.90;;
67503;SDS011;54351;49.108;1.502;2022-10-30T01:56:25;510.40;;;475.20;;
67503;SDS011;54351;49.108;1.502;2022-10-30T01:58:57;507.55;;;472.88;;
67503;SDS011;54351;49.108;1.502;2022-10-30T02:03:51;405.77;;;377.35;;
67503;SDS011;54351;49.108;1.502;2022-10-30T02:06:17;453.73;;;420.75;;
67503;SDS011;54351;49.108;1.502;2022-10-30T02:08:43;479.80;;;445.63;;
67503;SDS011;54351;49.108;1.502;2022-10-30T02:11:09;441.90;;;410.88;;
67503;SDS011;54351;49.108;1.502;2022-10-30T02:13:36;499.55;;;465.35;;
67503;SDS011;54351;49.108;1.502;2022-10-30T02:16:03;461.40;;;428.50;;
67503;SDS011;54351;49.108;1.502;2022-10-30T02:18:29;426.20;;;396.40;;
67503;SDS011;54351;49.108;1.502;2022-10-30T02:20:55;471.52;;;438.77;;
67503;SDS011;54351;49.108;1.502;2022-10-30T02:23:21;537.45;;;500.55;;
67503;SDS011;54351;49.108;1.502;2022-10-30T02:25:47;513.03;;;477.52;;
67503;SDS011;54351;49.108;1.502;2022-10-30T02:28:13;528.80;;;492.42;;
67503;SDS011;54351;49.108;1.502;2022-10-30T02:30:39;512.33;;;476.65;;
67503;SDS011;54351;49.108;1.502;2022-10-30T02:33:08;534.08;;;496.40;;
67503;SDS011;54351;49.108;1.502;2022-10-30T02:35:34;536.42;;;499.25;;
67503;SDS011;54351;49.108;1.502;2022-10-30T02:38:00;514.00;;;478.73;;
67503;SDS011;54351;49.108;1.502;2022-10-30T02:40:27;492.77;;;459.30;;
67503;SDS011;54351;49.108;1.502;2022-10-30T02:42:53;487.83;;;454.27;;
67503;SDS011;54351;49.108;1.502;2022-10-30T02:45:19;441.98;;;410.55;;
67503;SDS011;54351;49.108;1.502;2022-10-30T02:47:46;444.58;;;413.98;;
67503;SDS011;54351;49.108;1.502;2022-10-30T02:50:12;534.20;;;497.58;;
67503;SDS011;54351;49.108;1.502;2022-10-30T02:52:38;537.58;;;499.35;;
67503;SDS011;54351;49.108;1.502;2022-10-30T02:55:04;534.58;;;496.55;;
67503;SDS011;54351;49.108;1.502;2022-10-30T02:57:30;497.35;;;462.95;;
67503;SDS011;54351;49.108;1.502;2022-10-30T02:59:57;472.95;;;440.73;;
67503;SDS011;54351;49.108;1.502;2022-10-30T03:02:24;503.48;;;469.25;;
67503;SDS011;54351;49.108;1.502;2022-10-30T03:04:50;485.50;;;452.75;;
67503;SDS011;54351;49.108;1.502;2022-10-30T03:07:16;495.60;;;461.60;;
67503;SDS011;54351;49.108;1.502;2022-10-30T03:09:42;460.92;;;429.83;;
67503;SDS011;54351;49.108;1.502;2022-10-30T03:12:08;442.15;;;411.85;;
67503;SDS011;54351;49.108;1.502;2022-10-30T03:14:34;434.40;;;404.83;;
67503;SDS011;54351;49.108;1.502;2022-10-30T03:17:00;450.30;;;419.27;;
67503;SDS011;54351;49.108;1.502;2022-10-30T03:19:26;436.55;;;406.65;;
67503;SDS011;54351;49.108;1.502;2022-10-30T03:21:52;415.35;;;387.27;;
67503;SDS011;54351;49.108;1.502;2022-10-30T03:24:19;449.95;;;419.02;;
67503;SDS011;54351;49.108;1.502;2022-10-30T03:26:45;405.35;;;378.20;;
67503;SDS011;54351;49.108;1.502;2022-10-30T03:29:11;399.58;;;372.77;;
67503;SDS011;54351;49.108;1.502;2022-10-30T03:31:37;394.42;;;367.75;;
67503;SDS011;54351;49.108;1.502;2022-10-30T03:34:03;387.52;;;360.95;;
67503;SDS011;54351;49.108;1.502;2022-10-30T03:36:29;379.77;;;353.10;;
67503;SDS011;54351;49.108;1.502;2022-10-30T03:38:55;349.23;;;325.15;;
67503;SDS011;54351;49.108;1.502;2022-10-30T03:41:22;373.42;;;348.40;;
67503;SDS011;54351;49.108;1.502;2022-10-30T03:43:48;383.85;;;357.70;;
67503;SDS011;54351;49.108;1.502;2022-10-30T03:46:14;381.02;;;355.15;;
67503;SDS011;54351;49.108;1.502;2022-10-30T03:48:40;368.55;;;343.00;;
67503;SDS011;54351;49.108;1.502;2022-10-30T03:51:06;374.42;;;348.30;;
67503;SDS011;54351;49.108;1.502;2022-10-30T03:53:32;360.58;;;336.33;;
67503;SDS011;54351;49.108;1.502;2022-10-30T03:55:59;369.25;;;342.52;;
67503;SDS011;54351;49.108;1.502;2022-10-30T03:58:26;369.95;;;344.20;;
67503;SDS011;54351;49.108;1.502;2022-10-30T04:00:52;384.55;;;357.02;;
67503;SDS011;54351;49.108;1.502;2022-10-30T04:03:18;394.08;;;365.67;;
67503;SDS011;54351;49.108;1.502;2022-10-30T04:05:44;434.88;;;403.83;;
67503;SDS011;54351;49.108;1.502;2022-10-30T04:08:11;413.58;;;383.38;;
67503;SDS011;54351;49.108;1.502;2022-10-30T04:10:44;437.15;;;404.50;;
67503;SDS011;54351;49.108;1.502;2022-10-30T04:13:11;450.25;;;417.13;;
67503;SDS011;54351;49.108;1.502;2022-10-30T04:15:37;457.38;;;423.45;;
67503;SDS011;54351;49.108;1.502;2022-10-30T04:18:03;441.27;;;409.45;;
67503;SDS011;54351;49.108;1.502;2022-10-30T04:20:29;482.48;;;446.33;;
67503;SDS011;54351;49.108;1.502;2022-10-30T04:22:56;455.58;;;421.88;;
67503;SDS011;54351;49.108;1.502;2022-10-30T04:25:22;493.10;;;456.15;;
67503;SDS011;54351;49.108;1.502;2022-10-30T04:27:49;467.50;;;432.95;;
67503;SDS011;54351;49.108;1.502;2022-10-30T04:30:17;467.77;;;433.48;;
67503;SDS011;54351;49.108;1.502;2022-10-30T04:32:51;464.10;;;429.85;;
67503;SDS011;54351;49.108;1.502;2022-10-30T04:35:18;479.58;;;444.23;;
67503;SDS011;54351;49.108;1.502;2022-10-30T04:37:54;484.88;;;448.42;;
67503;SDS011;54351;49.108;1.502;2022-10-30T04:40:21;518.25;;;479.58;;
67503;SDS011;54351;49.108;1.502;2022-10-30T04:42:47;501.83;;;465.50;;
67503;SDS011;54351;49.108;1.502;2022-10-30T04:45:13;477.30;;;441.02;;
67503;SDS011;54351;49.108;1.502;2022-10-30T04:47:39;462.98;;;429.13;;
67503;SDS011;54351;49.108;1.502;2022-10-30T04:50:05;489.20;;;452.30;;
67503;SDS011;54351;49.108;1.502;2022-10-30T04:52:31;527.13;;;487.80;;
67503;SDS011;54351;49.108;1.502;2022-10-30T04:54:57;510.13;;;471.73;;
67503;SDS011;54351;49.108;1.502;2022-10-30T04:57:23;507.85;;;469.45;;
67503;SDS011;54351;49.108;1.502;2022-10-30T04:59:49;518.30;;;479.30;;
67503;SDS011;54351;49.108;1.502;2022-10-30T05:02:15;509.02;;;471.17;;
67503;SDS011;54351;49.108;1.502;2022-10-30T05:04:43;502.92;;;465.08;;
67503;SDS011;54351;49.108;1.502;2022-10-30T05:07:10;518.25;;;479.77;;
67503;SDS011;54351;49.108;1.502;2022-10-30T05:09:36;509.67;;;472.02;;
67503;SDS011;54351;49.108;1.502;2022-10-30T05:12:02;496.60;;;459.95;;
67503;SDS011;54351;49.108;1.502;2022-10-30T05:14:29;521.85;;;482.98;;
67503;SDS011;54351;49.108;1.502;2022-10-30T05:16:55;474.55;;;439.27;;
67503;SDS011;54351;49.108;1.502;2022-10-30T05:19:21;491.70;;;456.08;;
67503;SDS011;54351;49.108;1.502;2022-10-30T05:21:47;445.10;;;412.42;;
67503;SDS011;54351;49.108;1.502;2022-10-30T05:24:13;412.50;;;382.67;;
67503;SDS011;54351;49.108;1.502;2022-10-30T05:26:40;423.95;;;393.70;;
67503;SDS011;54351;49.108;1.502;2022-10-30T05:29:06;414.45;;;384.45;;
67503;SDS011;54351;49.108;1.502;2022-10-30T05:31:32;423.02;;;391.15;;
67503;SDS011;54351;49.108;1.502;2022-10-30T05:33:58;440.58;;;407.60;;
67503;SDS011;54351;49.108;1.502;2022-10-30T05:36:24;431.85;;;400.40;;
67503;SDS011;54351;49.108;1.502;2022-10-30T05:38:50;390.88;;;362.05;;
67503;SDS011;54351;49.108;1.502;2022-10-30T05:41:16;413.13;;;383.38;;
67503;SDS011;54351;49.108;1.502;2022-10-30T05:43:42;440.55;;;408.52;;
67503;SDS011;54351;49.108;1.502;2022-10-30T05:46:09;410.75;;;381.15;;
67503;SDS011;54351;49.108;1.502;2022-10-30T05:48:35;381.83;;;354.45;;
67503;SDS011;54351;49.108;1.502;2022-10-30T05:51:01;377.65;;;350.45;;
67503;SDS011;54351;49.108;1.502;2022-10-30T05:53:28;384.85;;;356.98;;
67503;SDS011;54351;49.108;1.502;2022-10-30T05:55:57;373.75;;;346.67;;
67503;SDS011;54351;49.108;1.502;2022-10-30T05:58:24;367.25;;;340.85;;
67503;SDS011;54351;49.108;1.502;2022-10-30T06:00:50;392.90;;;364.65;;
67503;SDS011;54351;49.108;1.502;2022-10-30T06:03:16;382.17;;;354.83;;
67503;SDS011;54351;49.108;1.502;2022-10-30T06:05:43;359.30;;;333.67;;
67503;SDS011;54351;49.108;1.502;2022-10-30T06:08:11;398.65;;;369.65;;
67503;SDS011;54351;49.108;1.502;2022-10-30T06:10:37;396.80;;;368.23;;
67503;SDS011;54351;49.108;1.502;2022-10-30T06:13:04;383.02;;;355.48;;
67503;SDS011;54351;49.108;1.502;2022-10-30T06:15:31;352.73;;;327.92;;
67503;SDS011;54351;49.108;1.502;2022-10-30T06:17:57;328.33;;;305.48;;
67503;SDS011;54351;49.108;1.502;2022-10-30T06:20:24;356.05;;;330.58;;
67503;SDS011;54351;49.108;1.502;2022-10-30T06:22:58;362.38;;;336.33;;
67503;SDS011;54351;49.108;1.502;2022-10-30T06:25:24;368.77;;;342.77;;
67503;SDS011;54351;49.108;1.502;2022-10-30T06:27:50;365.35;;;339.95;;
67503;SDS011;54351;49.108;1.502;2022-10-30T06:30:17;392.30;;;363.42;;
67503;SDS011;54351;49.108;1.502;2022-10-30T06:32:43;351.55;;;326.95;;
67503;SDS011;54351;49.108;1.502;2022-10-30T06:35:09;403.48;;;374.55;;
67503;SDS011;54351;49.108;1.502;2022-10-30T06:37:35;364.70;;;338.02;;
67503;SDS011;54351;49.108;1.502;2022-10-30T06:40:05;433.08;;;400.33;;
67503;SDS011;54351;49.108;1.502;2022-10-30T06:42:32;393.25;;;364.15;;
67503;SDS011;54351;49.108;1.502;2022-10-30T06:44:58;466.92;;;431.48;;
67503;SDS011;54351;49.108;1.502;2022-10-30T06:47:24;509.83;;;470.90;;
67503;SDS011;54351;49.108;1.502;2022-10-30T06:49:50;526.13;;;486.40;;
67503;SDS011;54351;49.108;1.502;2022-10-30T06:52:16;516.35;;;477.92;;
67503;SDS011;54351;49.108;1.502;2022-10-30T06:54:46;461.67;;;426.67;;
67503;SDS011;54351;49.108;1.502;2022-10-30T06:57:13;492.45;;;455.23;;
67503;SDS011;54351;49.108;1.502;2022-10-30T06:59:39;460.02;;;424.63;;
67503;SDS011;54351;49.108;1.502;2022-10-30T07:02:05;452.30;;;418.83;;
67503;SDS011;54351;49.108;1.502;2022-10-30T07:04:31;420.83;;;389.55;;
67503;SDS011;54351;49.108;1.502;2022-10-30T07:06:57;372.52;;;345.63;;
67503;SDS011;54351;49.108;1.502;2022-10-30T07:09:23;399.65;;;370.67;;
67503;SDS011;54351;49.108;1.502;2022-10-30T07:11:50;375.05;;;348.33;;
67503;SDS011;54351;49.108;1.502;2022-10-30T07:14:16;357.02;;;331.75;;
67503;SDS011;54351;49.108;1.502;2022-10-30T07:16:42;344.15;;;319.58;;
67503;SDS011;54351;49.108;1.502;2022-10-30T07:19:09;336.13;;;312.65;;
67503;SDS011;54351;49.108;1.502;2022-10-30T07:21:35;382.55;;;355.67;;
67503;SDS011;54351;49.108;1.502;2022-10-30T07:24:02;363.88;;;338.13;;
67503;SDS011;54351;49.108;1.502;2022-10-30T07:26:29;365.20;;;339.52;;
67503;SDS011;54351;49.108;1.502;2022-10-30T07:28:59;390.17;;;362.20;;
67503;SDS011;54351;49.108;1.502;2022-10-30T07:31:39;376.52;;;349.23;;
67503;SDS011;54351;49.108;1.502;2022-10-30T07:34:05;362.15;;;335.33;;
67503;SDS011;54351;49.108;1.502;2022-10-30T07:36:34;342.90;;;319.50;;
67503;SDS011;54351;49.108;1.502;2022-10-30T07:39:10;313.05;;;290.92;;
67503;SDS011;54351;49.108;1.502;2022-10-30T07:41:43;323.40;;;301.55;;
67503;SDS011;54351;49.108;1.502;2022-10-30T07:44:09;322.88;;;299.33;;
67503;SDS011;54351;49.108;1.502;2022-10-30T07:46:38;349.80;;;324.55;;
67503;SDS011;54351;49.108;1.502;2022-10-30T07:52:10;334.15;;;310.85;;
67503;SDS011;54351;49.108;1.502;2022-10-30T07:54:36;340.77;;;316.38;;
67503;SDS011;54351;49.108;1.502;2022-10-30T07:57:03;332.30;;;308.27;;
67503;SDS011;54351;49.108;1.502;2022-10-30T07:59:29;310.50;;;289.27;;
67503;SDS011;54351;49.108;1.502;2022-10-30T08:01:55;281.40;;;262.40;;
67503;SDS011;54351;49.108;1.502;2022-10-30T08:04:21;294.65;;;274.38;;
67503;SDS011;54351;49.108;1.502;2022-10-30T08:06:47;306.95;;;285.70;;
67503;SDS011;54351;49.108;1.502;2022-10-30T08:09:13;323.10;;;301.30;;
67503;SDS011;54351;49.108;1.502;2022-10-30T08:11:39;290.67;;;271.52;;
67503;SDS011;54351;49.108;1.502;2022-10-30T08:14:05;267.67;;;249.05;;
67503;SDS011;54351;49.108;1.502;2022-10-30T08:16:31;309.67;;;287.88;;
67503;SDS011;54351;49.108;1.502;2022-10-30T08:18:57;268.38;;;250.23;;
67503;SDS011;54351;49.108;1.502;2022-10-30T08:21:23;276.45;;;257.98;;
67503;SDS011;54351;49.108;1.502;2022-10-30T08:23:49;274.27;;;255.57;;
67503;SDS011;54351;49.108;1.502;2022-10-30T08:26:15;299.33;;;278.52;;
67503;SDS011;54351;49.108;1.502;2022-10-30T08:28:41;369.67;;;341.10;;
67503;SDS011;54351;49.108;1.502;2022-10-30T08:31:08;490.08;;;451.35;;
67503;SDS011;54351;49.108;1.502;2022-10-30T08:33:34;430.85;;;397.65;;
67503;SDS011;54351;49.108;1.502;2022-10-30T08:36:00;421.02;;;389.27;;
67503;SDS011;54351;49.108;1.502;2022-10-30T08:38:26;493.35;;;452.67;;
67503;SDS011;54351;49.108;1.502;2022-10-30T08:40:53;509.55;;;467.70;;
67503;SDS011;54351;49.108;1.502;2022-10-30T08:43:19;572.22;;;525.80;;
67503;SDS011;54351;49.108;1.502;2022-10-30T08:45:46;567.20;;;521.30;;
67503;SDS011;54351;49.108;1.502;2022-10-30T08:48:13;456.60;;;419.25;;
67503;SDS011;54351;49.108;1.502;2022-10-30T08:50:40;480.92;;;441.52;;
67503;SDS011;54351;49.108;1.502;2022-10-30T08:53:08;498.33;;;458.35;;
67503;SDS011;54351;49.108;1.502;2022-10-30T08:55:35;619.45;;;570.22;;
67503;SDS011;54351;49.108;1.502;2022-10-30T08:58:01;472.90;;;434.58;;
67503;SDS011;54351;49.108;1.502;2022-10-30T09:00:27;548.75;;;504.88;;
67503;SDS011;54351;49.108;1.502;2022-10-30T09:02:53;486.33;;;446.70;;
67503;SDS011;54351;49.108;1.502;2022-10-30T09:05:20;503.65;;;462.02;;
67503;SDS011;54351;49.108;1.502;2022-10-30T09:07:46;579.10;;;532.63;;
67503;SDS011;54351;49.108;1.502;2022-10-30T09:10:13;484.45;;;445.35;;
67503;SDS011;54351;49.108;1.502;2022-10-30T09:12:40;571.15;;;528.22;;
67503;SDS011;54351;49.108;1.502;2022-10-30T09:15:06;508.92;;;469.95;;
67503;SDS011;54351;49.108;1.502;2022-10-30T09:17:32;528.70;;;488.17;;
67503;SDS011;54351;49.108;1.502;2022-10-30T09:19:58;546.97;;;506.00;;
67503;SDS011;54351;49.108;1.502;2022-10-30T09:22:25;552.28;;;511.40;;
67503;SDS011;54351;49.108;1.502;2022-10-30T09:24:51;545.85;;;505.05;;
67503;SDS011;54351;49.108;1.502;2022-10-30T09:27:17;543.35;;;500.77;;
67503;SDS011;54351;49.108;1.502;2022-10-30T09:29:43;555.88;;;513.42;;
67503;SDS011;54351;49.108;1.502;2022-10-30T09:32:09;553.28;;;511.13;;
67503;SDS011;54351;49.108;1.502;2022-10-30T09:34:35;513.15;;;472.17;;
67503;SDS011;54351;49.108;1.502;2022-10-30T09:37:02;590.53;;;543.53;;
67503;SDS011;54351;49.108;1.502;2022-10-30T09:39:28;617.20;;;566.58;;
67503;SDS011;54351;49.108;1.502;2022-10-30T09:47:40;568.13;;;525.20;;
67503;SDS011;54351;49.108;1.502;2022-10-30T09:53:00;637.55;;;584.97;;
67503;SDS011;54351;49.108;1.502;2022-10-30T09:55:31;594.05;;;545.63;;
67503;SDS011;54351;49.108;1.502;2022-10-30T09:58:14;649.65;;;597.17;;
67503;SDS011;54351;49.108;1.502;2022-10-30T10:00:51;618.45;;;569.95;;
67503;SDS011;54351;49.108;1.502;2022-10-30T10:05:59;612.17;;;565.85;;
67503;SDS011;54351;49.108;1.502;2022-10-30T10:08:37;517.88;;;481.27;;
67503;SDS011;54351;49.108;1.502;2022-10-30T10:11:07;563.22;;;524.47;;
67503;SDS011;54351;49.108;1.502;2022-10-30T10:16:24;568.10;;;528.65;;
67503;SDS011;54351;49.108;1.502;2022-10-30T10:21:17;602.17;;;558.33;;
67503;SDS011;54351;49.108;1.502;2022-10-30T10:23:46;481.50;;;449.27;;
67503;SDS011;54351;49.108;1.502;2022-10-30T10:26:20;567.70;;;527.20;;
67503;SDS011;54351;49.108;1.502;2022-10-30T10:28:55;458.27;;;428.23;;
67503;SDS011;54351;49.108;1.502;2022-10-30T10:31:35;490.80;;;458.40;;
67503;SDS011;54351;49.108;1.502;2022-10-30T10:34:14;550.05;;;512.63;;
67503;SDS011;54351;49.108;1.502;2022-10-30T10:42:21;337.58;;;316.80;;
67503;SDS011;54351;49.108;1.502;2022-10-30T10:45:08;178.38;;;165.82;;
67503;SDS011;54351;49.108;1.502;2022-10-30T10:50:14;250.43;;;233.98;;
67503;SDS011;54351;49.108;1.502;2022-10-30T10:52:46;271.33;;;251.73;;
67503;SDS011;54351;49.108;1.502;2022-10-30T10:55:15;299.73;;;279.52;;
67503;SDS011;54351;49.108;1.502;2022-10-30T10:57:42;320.92;;;296.55;;
67503;SDS011;54351;49.108;1.502;2022-10-30T11:02:50;345.00;;;319.98;;
67503;SDS011;54351;49.108;1.502;2022-10-30T11:05:20;329.60;;;306.73;;
67503;SDS011;54351;49.108;1.502;2022-10-30T11:07:49;377.17;;;349.30;;
67503;SDS011;54351;49.108;1.502;2022-10-30T11:10:17;357.58;;;331.52;;
67503;SDS011;54351;49.108;1.502;2022-10-30T11:12:43;379.35;;;352.27;;
67503;SDS011;54351;49.108;1.502;2022-10-30T11:15:28;469.65;;;434.45;;
67503;SDS011;54351;49.108;1.502;2022-10-30T11:17:58;358.92;;;332.02;;
67503;SDS011;54351;49.108;1.502;2022-10-30T11:20:35;445.88;;;412.63;;
67503;SDS011;54351;49.108;1.502;2022-10-30T11:23:02;406.58;;;373.75;;
67503;SDS011;54351;49.108;1.502;2022-10-30T11:25:32;394.63;;;364.85;;
67503;SDS011;54351;49.108;1.502;2022-10-30T11:28:02;434.48;;;399.63;;
67503;SDS011;54351;49.108;1.502;2022-10-30T11:30:29;424.20;;;392.33;;
67503;SDS011;54351;49.108;1.502;2022-10-30T11:32:57;441.38;;;407.90;;
67503;SDS011;54351;49.108;1.502;2022-10-30T11:35:24;524.05;;;481.98;;
67503;SDS011;54351;49.108;1.502;2022-10-30T11:37:51;535.28;;;491.25;;
67503;SDS011;54351;49.108;1.502;2022-10-30T11:40:21;558.35;;;512.13;;
67503;SDS011;54351;49.108;1.502;2022-10-30T11:42:56;528.03;;;484.38;;
67503;SDS011;54351;49.108;1.502;2022-10-30T11:45:23;526.63;;;484.08;;
67503;SDS011;54351;49.108;1.502;2022-10-30T11:47:51;527.88;;;484.88;;
67503;SDS011;54351;49.108;1.502;2022-10-30T11:50:25;550.20;;;508.05;;
67503;SDS011;54351;49.108;1.502;2022-10-30T11:52:52;497.60;;;457.83;;
67503;SDS011;54351;49.108;1.502;2022-10-30T11:55:28;484.67;;;447.30;;
67503;SDS011;54351;49.108;1.502;2022-10-30T11:57:55;544.95;;;499.80;;
67503;SDS011;54351;49.108;1.502;2022-10-30T12:00:26;567.53;;;520.05;;
67503;SDS011;54351;49.108;1.502;2022-10-30T12:02:53;616.47;;;565.05;;
67503;SDS011;54351;49.108;1.502;2022-10-30T12:07:49;673.17;;;617.03;;
67503;SDS011;54351;49.108;1.502;2022-10-30T12:10:25;532.95;;;489.02;;
67503;SDS011;54351;49.108;1.502;2022-10-30T12:12:51;355.60;;;328.10;;
67503;SDS011;54351;49.108;1.502;2022-10-30T12:15:20;295.20;;;272.92;;
67503;SDS011;54351;49.108;1.502;2022-10-30T12:20:17;508.85;;;468.55;;
67503;SDS011;54351;49.108;1.502;2022-10-30T12:22:44;444.70;;;410.60;;
67503;SDS011;54351;49.108;1.502;2022-10-30T12:25:17;481.77;;;446.60;;
67503;SDS011;54351;49.108;1.502;2022-10-30T12:27:45;585.20;;;536.13;;
67503;SDS011;54351;49.108;1.502;2022-10-30T12:30:20;483.55;;;445.00;;
67503;SDS011;54351;49.108;1.502;2022-10-30T12:32:48;581.08;;;532.10;;
67503;SDS011;54351;49.108;1.502;2022-10-30T12:35:36;581.20;;;532.42;;
67503;SDS011;54351;49.108;1.502;2022-10-30T12:38:14;673.78;;;616.05;;
67503;SDS011;54351;49.108;1.502;2022-10-30T12:40:45;566.40;;;519.05;;
67503;SDS011;54351;49.108;1.502;2022-10-30T12:43:16;643.50;;;589.15;;
67503;SDS011;54351;49.108;1.502;2022-10-30T12:45:45;635.75;;;582.42;;
67503;SDS011;54351;49.108;1.502;2022-10-30T12:48:14;581.63;;;532.67;;
67503;SDS011;54351;49.108;1.502;2022-10-30T12:50:43;581.50;;;533.25;;
67503;SDS011;54351;49.108;1.502;2022-10-30T12:56:11;598.55;;;549.10;;
67503;SDS011;54351;49.108;1.502;2022-10-30T13:01:45;426.98;;;392.45;;
67503;SDS011;54351;49.108;1.502;2022-10-30T13:04:17;271.45;;;250.82;;
67503;SDS011;54351;49.108;1.502;2022-10-30T13:09:46;382.10;;;353.55;;
67503;SDS011;54351;49.108;1.502;2022-10-30T13:12:17;423.70;;;391.98;;
67503;SDS011;54351;49.108;1.502;2022-10-30T13:17:43;279.33;;;258.77;;
67503;SDS011;54351;49.108;1.502;2022-10-30T13:20:13;234.30;;;217.98;;
67503;SDS011;54351;49.108;1.502;2022-10-30T13:29:28;207.40;;;192.48;;
67503;SDS011;54351;49.108;1.502;2022-10-30T13:39:40;311.15;;;288.48;;
67503;SDS011;54351;49.108;1.502;2022-10-30T13:42:15;289.48;;;268.38;;
67503;SDS011;54351;49.108;1.502;2022-10-30T13:52:21;392.45;;;361.98;;
67503;SDS011;54351;49.108;1.502;2022-10-30T13:54:54;469.58;;;431.95;;
67503;SDS011;54351;49.108;1.502;2022-10-30T13:57:25;502.55;;;461.38;;
67503;SDS011;54351;49.108;1.502;2022-10-30T14:05:12;578.00;;;529.67;;
67503;SDS011;54351;49.108;1.502;2022-10-30T14:07:49;590.85;;;541.75;;
67503;SDS011;54351;49.108;1.502;2022-10-30T14:20:39;599.17;;;549.35;;
67503;SDS011;54351;49.108;1.502;2022-10-30T14:25:33;601.50;;;551.22;;
67503;SDS011;54351;49.108;1.502;2022-10-30T14:27:59;560.28;;;514.08;;
67503;SDS011;54351;49.108;1.502;2022-10-30T14:30:25;634.28;;;580.63;;
67503;SDS011;54351;49.108;1.502;2022-10-30T14:32:53;721.78;;;660.55;;
67503;SDS011;54351;49.108;1.502;2022-10-30T14:35:26;805.42;;;736.55;;
67503;SDS011;54351;49.108;1.502;2022-10-30T14:37:53;783.60;;;717.63;;
67503;SDS011;54351;49.108;1.502;2022-10-30T14:43:07;662.45;;;607.08;;
67503;SDS011;54351;49.108;1.502;2022-10-30T14:45:43;649.20;;;594.70;;
67503;SDS011;54351;49.108;1.502;2022-10-30T14:48:20;555.08;;;509.85;;
67503;SDS011;54351;49.108;1.502;2022-10-30T14:58:36;704.88;;;646.17;;
67503;SDS011;54351;49.108;1.502;2022-10-30T15:03:32;608.88;;;557.97;;
67503;SDS011;54351;49.108;1.502;2022-10-30T15:13:35;733.05;;;670.53;;
67503;SDS011;54351;49.108;1.502;2022-10-30T15:16:03;635.70;;;583.17;;
67503;SDS011;54351;49.108;1.502;2022-10-30T15:18:32;627.65;;;575.33;;
67503;SDS011;54351;49.108;1.502;2022-10-30T15:21:10;676.72;;;620.15;;
67503;SDS011;54351;49.108;1.502;2022-10-30T15:23:42;702.38;;;643.35;;
67503;SDS011;54351;49.108;1.502;2022-10-30T15:26:21;713.38;;;653.83;;
67503;SDS011;54351;49.108;1.502;2022-10-30T15:28:51;693.85;;;635.33;;
67503;SDS011;54351;49.108;1.502;2022-10-30T15:31:24;599.13;;;548.72;;
67503;SDS011;54351;49.108;1.502;2022-10-30T15:33:51;672.35;;;616.25;;
67503;SDS011;54351;49.108;1.502;2022-10-30T15:36:33;745.33;;;682.58;;
67503;SDS011;54351;49.108;1.502;2022-10-30T15:39:15;676.72;;;619.08;;
67503;SDS011;54351;49.108;1.502;2022-10-30T15:41:49;564.05;;;516.15;;
67503;SDS011;54351;49.108;1.502;2022-10-30T15:44:29;721.30;;;659.45;;
67503;SDS011;54351;49.108;1.502;2022-10-30T15:46:58;690.63;;;632.80;;
67503;SDS011;54351;49.108;1.502;2022-10-30T15:49:37;769.40;;;704.23;;
67503;SDS011;54351;49.108;1.502;2022-10-30T15:52:16;756.08;;;693.03;;
67503;SDS011;54351;49.108;1.502;2022-10-30T15:54:44;736.20;;;673.40;;
67503;SDS011;54351;49.108;1.502;2022-10-30T15:57:15;789.40;;;721.17;;
67503;SDS011;54351;49.108;1.502;2022-10-30T16:02:19;799.67;;;733.03;;
67503;SDS011;54351;49.108;1.502;2022-10-30T16:04:46;733.15;;;671.83;;
67503;SDS011;54351;49.108;1.502;2022-10-30T16:07:23;761.80;;;697.90;;
67503;SDS011;54351;49.108;1.502;2022-10-30T16:10:00;802.00;;;733.67;;
67503;SDS011;54351;49.108;1.502;2022-10-30T16:12:29;847.97;;;775.45;;
67503;SDS011;54351;49.108;1.502;2022-10-30T16:14:56;853.53;;;780.65;;